METAR Data
IDs: Format: Raw Decoded Include TAF

Data at: 2320 UTC 19 Jan 2019

PANI 192256Z AUTO 00000KT 10SM CLR M15/M19 A2999 RMK AO2 SLP125 T11501189 FZRANO
PANI 192156Z AUTO 00000KT 10SM CLR M16/M18 A3000 RMK AO2 SLP127 T11561183 FZRANO
PANI 192056Z AUTO 00000KT 10SM CLR M18/M21 A3001 RMK AO2 SLP130 T11831211 53003 FZRANO
PANI 192040Z AUTO 30003KT 7SM CLR M18/M21 A3001 RMK AO2 FZRANO
PANI 192033Z AUTO 00000KT 2 1/2SM BR CLR M19/M21 A3001 RMK AO2 VIS 1 1/2V5 FZRANO
PANI 191956Z AUTO 00000KT 10SM CLR M22/M24 A3001 RMK AO2 SLP131 T12171239 FZRANO
PANI 191856Z AUTO 00000KT 9SM CLR M20/M23 A2999 RMK AO2 SLP125 T12001228 FZRANO
PANI 191756Z AUTO 03005KT 10SM CLR M18/M19 A3000 RMK AO2 SLP127 60000 T11831194 11133 21189 55002 FZRANO
PANI 191656Z AUTO 00000KT 10SM CLR M16/M18 A2999 RMK AO2 SLP126 T11561178 FZRANO
PANI 191556Z AUTO 00000KT 10SM CLR M15/M18 A3000 RMK AO2 SLP126 T11501178 FZRANO
PANI 191456Z AUTO 33006KT 10SM CLR M14/M16 A3000 RMK AO2 SLP129 60000 T11441161 51001 FZRANO
PANI 191356Z AUTO 00000KT 9SM CLR M16/M18 A3000 RMK AO2 SNE51 SLP129 P0000 T11611178 FZRANO
PANI 191256Z AUTO 00000KT 9SM -SN CLR M15/M17 A3001 RMK AO2 SNE30B49 SLP130 P0000 T11501172 FZRANO
PANI 191156Z AUTO 32006KT 9SM -SN CLR M13/M16 A3000 RMK AO2 SLP128 P0000 60000 T11331156 11111 21133 51001 FZRANO
PANI 191110Z AUTO 32007KT 9SM -SN FEW017 M13/M15 A3000 RMK AO2 P0000 FZRANO
PANI 191056Z AUTO 34006KT 9SM -SN BKN019 M13/M15 A3000 RMK AO2 SLP128 P0000 T11281150 FZRANO
PANI 190956Z AUTO 34007KT 9SM -SN OVC017 M12/M14 A3000 RMK AO2 SLP128 P0000 T11171139 FZRANO
PANI 190856Z AUTO 34007KT 9SM -SN OVC017 M12/M14 A3000 RMK AO2 SNE13B44 SLP127 P0000 60000 T11171139 410891122 53002 FZRANO
PANI 190814Z AUTO 36007KT 9SM BKN021 M12/M14 A3000 RMK AO2 SNE13 P0000 FZRANO
PANI 190756Z AUTO 35006KT 9SM -SN FEW021 M12/M14 A3000 RMK AO2 SLP127 P0000 T11221139 FZRANO
PANI 190723Z AUTO 36003KT 7SM -SN FEW012 M12/M13 A3000 RMK AO2 P0000 FZRANO
PANI 190656Z AUTO 01005KT 4SM -SN BR FEW008 OVC012 M11/M13 A2999 RMK AO2 SLP125 P0000 T11111128 FZRANO
PANI 190556Z AUTO 34007KT 9SM -SN BKN012 M11/M13 A2999 RMK AO2 SLP126 P0000 60000 T11111133 11106 21111 53001 FZRANO
PANI 190537Z AUTO 34011KT 9SM -SN SCT014 M11/M13 A2998 RMK AO2 P0000 FZRANO
PANI 190456Z AUTO 35007KT 9SM -SN OVC014 M11/M13 A2999 RMK AO2 SLP124 P0000 T11061128 FZRANO
PANI 190418Z AUTO 34006KT 9SM -SN OVC014 M11/M13 A2999 RMK AO2 P0000 FZRANO
PANI 190356Z AUTO 35008KT 9SM -SN OVC016 M11/M13 A2999 RMK AO2 SLP124 P0000 T11111133 FZRANO
PANI 190346Z AUTO 35008KT 9SM -SN OVC016 M11/M13 A2999 RMK AO2 P0000 FZRANO
PANI 190313Z AUTO 35012KT 9SM -SN BKN014 OVC031 M11/M13 A2999 RMK AO2 P0000 FZRANO
PANI 190256Z AUTO 34013KT 9SM -SN SCT012 OVC031 M11/M13 A2999 RMK AO2 SNE24B40 SLP124 P0000 60000 T11111133 53005 FZRANO
PANI 190225Z AUTO 34011KT 9SM BKN012 OVC025 M11/M13 A2998 RMK AO2 SNE24 P0000 FZRANO
PANI 190156Z AUTO 34012KT 9SM -SN OVC027 M11/M13 A2998 RMK AO2 SNB04 SLP122 P0000 T11111133 FZRANO
PANI 190135Z AUTO 36011KT 9SM -SN BKN027 M11/M14 A2998 RMK AO2 SNB04 P0000 FZRANO
PANI 190056Z AUTO 35008G14KT 10SM CLR M11/M14 A2997 RMK AO2 SLP119 T11111139 FZRANO
PANI 190018Z AUTO 35009KT 10SM FEW012 OVC046 M11/M13 A2997 RMK AO2 FZRANO
PANI 182356Z AUTO 35006KT 10SM OVC012 M11/M13 A2997 RMK AO2 SLP119 T11061133 11089 21106 53000 FZRANO
PANI 182339Z AUTO 35006KT 10SM BKN012 OVC044 M10/M13 A2997 RMK AO2 FZRANO
PANI 182323Z AUTO 33007KT 10SM SCT012 OVC044 M10/M13 A2997 RMK AO2 FZRANO
PANI 182256Z AUTO 34005KT 10SM OVC012 M09/M13 A2997 RMK AO2 SLP117 T10941128 FZRANO
PANI 182156Z AUTO 35008KT 10SM OVC012 M09/M12 A2997 RMK AO2 SLP117 T10941122 FZRANO
PANI 182056Z AUTO 36006KT 10SM OVC012 M09/M13 A2997 RMK AO2 SLP119 T10941128 53005 FZRANO
PANI 182016Z AUTO 35008KT 10SM BKN012 BKN023 OVC038 M09/M13 A2997 RMK AO2 FZRANO
PANI 181956Z AUTO 34007KT 10SM OVC038 M09/M12 A2997 RMK AO2 SLP116 T10891122 FZRANO
PANI 181856Z AUTO 33005KT 10SM OVC034 M10/M12 A2996 RMK AO2 SLP114 T11001117 FZRANO
PANI 181756Z AUTO 32006KT 10SM OVC034 M10/M12 A2996 RMK AO2 SLP114 60000 T11001117 11089 21100 53003 FZRANO
PANI 181656Z AUTO 36003KT 10SM FEW008 OVC043 M10/M11 A2995 RMK AO2 SLP112 T11001111 FZRANO
PANI 181641Z AUTO 35004KT 10SM SCT008 OVC043 M10/M11 A2995 RMK AO2 FZRANO
PANI 181556Z AUTO 35005KT 10SM OVC008 M09/M11 A2995 RMK AO2 CIG 007V010 SLP112 T10941106 FZRANO
PANI 181538Z AUTO 34008KT 10SM BKN008 OVC011 M09/M11 A2995 RMK AO2 FZRANO
PANI 181523Z AUTO 34007KT 10SM SCT009 OVC012 M09/M11 A2995 RMK AO2 FZRANO
PANI 181456Z AUTO 33006KT 10SM BKN014 BKN023 OVC028 M09/M11 A2995 RMK AO2 SLP110 60000 T10941106 51011 FZRANO
PANI 181430Z AUTO 34006KT 10SM FEW010 OVC029 M09/M11 A2994 RMK AO2 FZRANO
PANI 181423Z AUTO 35005KT 10SM FEW010 SCT022 OVC031 M09/M11 A2994 RMK AO2 FZRANO
PANI 181356Z AUTO 35005KT 10SM OVC017 M09/M11 A2994 RMK AO2 SLP108 T10941111 FZRANO
PANI 181256Z AUTO 33008KT 10SM OVC026 M09/M11 A2993 RMK AO2 SNE46 SLP103 P0000 T10891111 FZRANO
PANI 181220Z AUTO 33009KT 9SM -SN OVC028 M09/M11 A2992 RMK AO2 P0000 FZRANO
PANI 181156Z AUTO 33010KT 6SM -SN BR OVC030 M09/M11 A2992 RMK AO2 SLP099 P0000 60000 T10891111 11072 21089 53013 FZRANO
PANI 181138Z AUTO 35007KT 5SM -SN BR SCT023 OVC032 M09/M11 A2991 RMK AO2 P0000 FZRANO